Terminal Aerodrome Forecast
Issued by NWS

Home | Current Version | Previous Version | Text Only | Print | Product List | Glossary On
Versions: 1 2 3 4 5 6 7 8 9 10 11 12 13 14 15 16 17 18
000
FTUS45 KABQ 272300 RRA
TAFFMN
TAF
KFMN 272343Z 2800/2824 12008KT 5SM BR VCSH SCT009 OVC025
      TEMPO 2800/2804 09007KT 1/2SM -SN FZFG OVC006
     FM280400 09008KT 5SM BR VCSH BKN008 OVC015
      TEMPO 2804/2808 2SM -SN OVC009
     FM281300 12008KT 3SM -SN BR SCT009 OVC015
     FM282000 22015KT P6SM VCSH SCT015 BKN040=

USA.gov is the U.S. government's official web portal to all federal, state and local government web resources and services.